createdAt,value
2022-07-30T00:01:59.194Z,101782.13
2022-07-30T00:07:20.955Z,101782.13
2022-07-30T00:12:42.681Z,101777.66
2022-07-30T00:18:04.519Z,101773.16
2022-07-30T00:23:26.456Z,101769.53
2022-07-30T00:28:48.256Z,101767.59
2022-07-30T00:34:10.217Z,101761.44
2022-07-30T00:39:32.324Z,101763.09
2022-07-30T00:44:54.097Z,101765.06
2022-07-30T00:50:16.882Z,101762.53
2022-07-30T00:55:38.659Z,101760.59
2022-07-30T01:01:00.450Z,101759.75
2022-07-30T01:06:22.247Z,101760.84
2022-07-30T01:11:44.610Z,101751.38
2022-07-30T01:17:06.866Z,101746.91
2022-07-30T01:22:30.594Z,101753.56
2022-07-30T01:27:58.435Z,101759.16
2022-07-30T01:33:23.359Z,101760.00
2022-07-30T01:38:47.147Z,101748.22
2022-07-30T01:44:12.292Z,101747.13
2022-07-30T01:49:36.643Z,101744.63
2022-07-30T01:55:03.059Z,101748.50
2022-07-30T02:00:28.691Z,101750.19
2022-07-30T02:05:56.190Z,101757.97
2022-07-30T02:11:37.801Z,101751.56
2022-07-30T02:17:03.641Z,101767.44
2022-07-30T02:22:30.942Z,101766.59
2022-07-30T02:27:58.402Z,101762.13
2022-07-30T02:33:26.009Z,101754.22
2022-07-30T02:38:51.035Z,101768.19
2022-07-30T02:44:19.001Z,101769.03
2022-07-30T02:49:42.172Z,101771.22
2022-07-30T02:55:05.483Z,101762.28
2022-07-30T03:00:31.014Z,101773.16
2022-07-30T03:05:53.043Z,101781.78
2022-07-30T03:11:18.510Z,101776.22
2022-07-30T03:16:45.748Z,101774.53
2022-07-30T03:22:09.804Z,101766.44
2022-07-30T03:27:32.574Z,101768.34
2022-07-30T03:32:56.217Z,101775.03
2022-07-30T03:38:20.427Z,101778.91
2022-07-30T03:43:42.326Z,101781.97
2022-07-30T03:49:06.167Z,101771.63
2022-07-30T03:54:28.190Z,101774.69
2022-07-30T03:59:51.882Z,101784.16
2022-07-30T04:05:14.372Z,101782.22
2022-07-30T04:10:36.110Z,101796.19
2022-07-30T04:16:39.214Z,101790.00
2022-07-30T04:22:01.120Z,101795.00
2022-07-30T04:27:25.517Z,101811.72
2022-07-30T04:32:47.349Z,101826.50
2022-07-30T04:38:10.767Z,101829.56
2022-07-30T04:43:32.523Z,101834.28
2022-07-30T04:48:54.353Z,101830.66
2022-07-30T04:54:16.603Z,101823.38
2022-07-30T04:59:38.836Z,101828.97
2022-07-30T05:05:01.513Z,101823.38
2022-07-30T05:10:25.115Z,101828.97
2022-07-30T05:15:47.089Z,101822.56
2022-07-30T05:21:09.342Z,101837.31
2022-07-30T05:26:31.124Z,101844.00
2022-07-30T05:31:52.816Z,101844.00
2022-07-30T05:37:14.933Z,101844.25
2022-07-30T05:42:36.741Z,101842.31
2022-07-30T05:47:58.528Z,101847.88
2022-07-30T05:53:20.281Z,101854.31
2022-07-30T05:58:42.013Z,101848.97
2022-07-30T06:04:03.825Z,101859.03
2022-07-30T06:09:29.784Z,101858.22
2022-07-30T06:14:59.200Z,101851.75
2022-07-30T06:20:21.668Z,101847.88
2022-07-30T06:25:43.441Z,101853.78
2022-07-30T06:31:05.708Z,101871.56
2022-07-30T06:36:27.466Z,101873.09
2022-07-30T06:41:49.250Z,101870.44
2022-07-30T06:47:11.532Z,101875.50
2022-07-30T06:52:33.566Z,101883.28
2022-07-30T06:57:55.350Z,101876.66
2022-07-30T07:03:17.092Z,101863.81
2022-07-30T07:08:39.021Z,101863.53
2022-07-30T07:14:04.475Z,101867.78
2022-07-30T07:19:59.810Z,101866.19
2022-07-30T07:25:08.838Z,101881.94
2022-07-30T07:30:30.796Z,101886.00
2022-07-30T07:35:54.380Z,101893.38
2022-07-30T07:41:16.500Z,101878.38
2022-07-30T07:46:38.408Z,101877.28
2022-07-30T07:52:00.297Z,101876.78
2022-07-30T07:57:22.017Z,101884.63
2022-07-30T08:02:43.861Z,101877.94
2022-07-30T08:08:06.111Z,101893.09
2022-07-30T08:13:51.365Z,101885.53
2022-07-30T08:19:12.684Z,101874.97
2022-07-30T08:24:34.427Z,101874.75
2022-07-30T08:29:56.255Z,101868.06
2022-07-30T08:35:20.478Z,101872.28
2022-07-30T08:40:42.451Z,101861.09
2022-07-30T08:46:12.944Z,101866.41
2022-07-30T08:51:37.838Z,101855.19
2022-07-30T08:56:59.714Z,101858.81
2022-07-30T09:02:27.505Z,101861.34
2022-07-30T09:07:49.721Z,101880.88
2022-07-30T09:13:35.112Z,101883.44
2022-07-30T09:18:57.215Z,101880.88
2022-07-30T09:24:18.930Z,101893.75
2022-07-30T09:29:40.802Z,101880.88
2022-07-30T09:35:13.048Z,101873.97
2022-07-30T09:40:35.090Z,101867.53
2022-07-30T09:45:59.005Z,101856.34
2022-07-30T09:51:49.308Z,101856.72
2022-07-30T09:57:26.172Z,101856.72
2022-07-30T10:02:51.801Z,101856.44
2022-07-30T10:08:16.425Z,101857.25
2022-07-30T10:13:43.914Z,101863.72
2022-07-30T10:19:07.569Z,101866.00
2022-07-30T10:24:40.782Z,101858.72
2022-07-30T10:30:05.691Z,101862.63
2022-07-30T10:35:35.070Z,101859.81
2022-07-30T10:41:12.388Z,101865.13
2022-07-30T10:47:07.817Z,101865.13
2022-07-30T10:52:50.868Z,101862.06
2022-07-30T10:58:14.483Z,101860.16
2022-07-30T11:03:44.546Z,101856.50
2022-07-30T11:09:40.793Z,101856.50
2022-07-30T11:15:07.099Z,101854.84
2022-07-30T11:20:40.857Z,101859.88
2022-07-30T11:26:03.479Z,101855.97
2022-07-30T11:31:54.874Z,101850.41
2022-07-30T11:37:21.597Z,101841.19
2022-07-30T11:42:45.135Z,101848.72
2022-07-30T11:48:12.016Z,101844.81
2022-07-30T11:53:34.745Z,101842.03
2022-07-30T11:59:09.574Z,101844.31
2022-07-30T12:04:31.305Z,101840.91
2022-07-30T12:09:53.010Z,101844.31
2022-07-30T12:15:35.332Z,101850.50
2022-07-30T12:20:59.816Z,101846.63
2022-07-30T12:26:26.939Z,101834.34
2022-07-30T12:31:48.897Z,101826.47
2022-07-30T12:37:10.739Z,101832.06
2022-07-30T12:42:32.541Z,101827.06
2022-07-30T12:47:54.381Z,101836.59
2022-07-30T12:53:16.103Z,101835.50
2022-07-30T12:58:38.505Z,101827.13
2022-07-30T13:04:05.643Z,101829.91
2022-07-30T13:09:27.347Z,101817.31
2022-07-30T13:14:49.323Z,101822.06
2022-07-30T13:20:11.526Z,101812.00
2022-07-30T13:25:38.995Z,101804.97
2022-07-30T13:31:02.578Z,101811.41
2022-07-30T13:36:24.419Z,101804.72
2022-07-30T13:41:46.158Z,101796.59
2022-07-30T13:47:10.401Z,101792.69
2022-07-30T13:52:32.147Z,101792.44
2022-07-30T13:57:53.879Z,101778.47
2022-07-30T14:03:16.011Z,101786.88
2022-07-30T14:08:38.994Z,101786.88
2022-07-30T14:14:00.693Z,101784.06
2022-07-30T14:19:23.982Z,101779.31
2022-07-30T14:24:46.238Z,101773.72
2022-07-30T14:30:09.662Z,101774.59
2022-07-30T14:35:31.358Z,101769.00
2022-07-30T14:40:53.041Z,101765.06
2022-07-30T14:46:14.861Z,101770.34
2022-07-30T14:51:37.628Z,101760.34
2022-07-30T14:56:59.710Z,101772.69
2022-07-30T15:02:21.607Z,101765.22
2022-07-30T15:07:43.275Z,101756.28
2022-07-30T15:13:04.968Z,101754.09
2022-07-30T15:18:28.100Z,101756.88
2022-07-30T15:23:51.543Z,101750.72
2022-07-30T15:29:13.575Z,101749.88
2022-07-30T15:34:35.448Z,101752.66
2022-07-30T15:39:57.188Z,101750.72
2022-07-30T15:45:20.256Z,101749.88
2022-07-30T15:50:42.336Z,101749.00
2022-07-30T15:56:04.717Z,101744.56
2022-07-30T16:01:26.533Z,101743.69
2022-07-30T16:06:49.001Z,101742.00
2022-07-30T16:12:10.917Z,101747.59
2022-07-30T16:17:32.656Z,101741.19
2022-07-30T16:22:57.026Z,101726.91
2022-07-30T16:28:19.045Z,101720.44
2022-07-30T16:33:40.988Z,101727.41
2022-07-30T16:39:02.950Z,101725.44
2022-07-30T16:44:27.128Z,101719.66
2022-07-30T16:49:48.838Z,101713.84
2022-07-30T16:55:10.894Z,101708.50
2022-07-30T17:00:32.620Z,101707.06
2022-07-30T17:05:54.397Z,101706.75
2022-07-30T17:11:45.896Z,101715.38
2022-07-30T17:16:58.435Z,101701.97
2022-07-30T17:22:20.637Z,101698.59
2022-07-30T17:27:42.554Z,101704.16
2022-07-30T17:33:06.423Z,101703.31
2022-07-30T17:38:28.934Z,101694.31
2022-07-30T17:43:50.676Z,101698.22
2022-07-30T17:49:12.403Z,101701.28
2022-07-30T17:54:34.286Z,101706.03
2022-07-30T17:59:56.072Z,101699.56
2022-07-30T18:05:17.801Z,101697.88
2022-07-30T18:10:40.639Z,101690.63
2022-07-30T18:16:02.388Z,101694.50
2022-07-30T18:21:24.100Z,101709.59
2022-07-30T18:26:46.984Z,101692.84
2022-07-30T18:32:09.140Z,101695.28
2022-07-30T18:37:41.532Z,101694.78
2022-07-30T18:43:04.275Z,101689.78
2022-07-30T18:48:26.280Z,101697.06
2022-07-30T18:53:47.988Z,101693.41
2022-07-30T18:59:10.015Z,101699.56
2022-07-30T19:04:31.776Z,101701.63
2022-07-30T19:09:55.902Z,101693.00
2022-07-30T19:15:17.656Z,101698.59
2022-07-30T19:20:39.415Z,101704.16
2022-07-30T19:26:01.238Z,101692.72
2022-07-30T19:31:23.054Z,101698.63
2022-07-30T19:36:44.746Z,101692.44
2022-07-30T19:42:07.291Z,101698.59
2022-07-30T19:47:39.382Z,101701.97
2022-07-30T19:53:01.676Z,101704.22
2022-07-30T19:58:24.979Z,101705.09
2022-07-30T20:03:46.913Z,101711.56
2022-07-30T20:09:14.054Z,101716.88
2022-07-30T20:14:36.175Z,101709.06
2022-07-30T20:20:04.470Z,101730.03
2022-07-30T20:25:28.313Z,101724.47
2022-07-30T20:31:00.487Z,101729.53
2022-07-30T20:36:22.493Z,101732.91
2022-07-30T20:41:44.590Z,101745.81
2022-07-30T20:47:08.312Z,101748.09
2022-07-30T20:52:30.563Z,101743.09
2022-07-30T20:58:00.242Z,101738.09
2022-07-30T21:03:29.837Z,101738.31
2022-07-30T21:08:51.502Z,101730.22
2022-07-30T21:14:13.913Z,101721.22
2022-07-30T21:19:39.558Z,101728.44
2022-07-30T21:25:01.724Z,101730.03
2022-07-30T21:30:30.447Z,101730.31
2022-07-30T21:35:52.150Z,101734.72
2022-07-30T21:41:15.276Z,101734.16
2022-07-30T21:46:38.166Z,101735.00
2022-07-30T21:51:59.997Z,101727.13
2022-07-30T21:57:23.036Z,101731.03
2022-07-30T22:02:52.875Z,101722.94
2022-07-30T22:08:17.263Z,101730.72
2022-07-30T22:13:54.116Z,101734.63
2022-07-30T22:19:17.143Z,101733.78
2022-07-30T22:24:38.958Z,101732.94
2022-07-30T22:30:00.675Z,101738.50
2022-07-30T22:35:33.518Z,101724.81
2022-07-30T22:40:56.394Z,101726.50
2022-07-30T22:46:30.914Z,101728.72
2022-07-30T22:52:03.949Z,101734.31
2022-07-30T22:57:37.770Z,101746.53
2022-07-30T23:03:00.022Z,101749.34
2022-07-30T23:08:29.292Z,101751.53
2022-07-30T23:13:55.637Z,101744.25
2022-07-30T23:19:22.005Z,101741.47
2022-07-30T23:24:44.138Z,101723.88
2022-07-30T23:30:08.570Z,101702.38
2022-07-30T23:35:30.248Z,101689.78
2022-07-30T23:40:51.946Z,101697.31
2022-07-30T23:46:15.496Z,101688.91
2022-07-30T23:51:37.270Z,101705.94
2022-07-30T23:56:59.010Z,101713.50
